Terminal Aerodrome Forecast
Issued by NWS Wilmington, OH

Home | Current Version | Previous Version | Text Only | Print | Product List | Glossary On
Versions: 1 2 3 4 5 6 7 8 9 10 11 12 13 14 15 16 17 18 19 20 21 22 23 24
000
FTUS41 KILN 292338
TAFILN
TAF
KILN 292338Z 3000/3024 25007KT P6SM VCTS BKN040CB
      TEMPO 3000/3002 28009KT 3SM -TSRA BR BKN035CB
     FM300200 33006KT P6SM BKN120
     FM300600 30006KT P6SM SCT020
     FM301400 31007KT P6SM FEW035
     FM302200 VRB05KT P6SM SKC=

USA.gov is the U.S. government's official web portal to all federal, state and local government web resources and services.